TimeEST,TemperatureF,Dew PointF,Humidity,Sea Level PressureIn,VisibilityMPH,Wind Direction,Wind SpeedMPH,Gust SpeedMPH,PrecipitationIn,Events,Conditions,WindDirDegrees,DateUTC
12:53 AM,52.0,30.0,43,29.96,10.0,South,10.4,-,N/A,,Clear,170,2011-11-14 05:53:00
1:53 AM,51.1,30.9,46,29.96,10.0,South,10.4,-,N/A,,Clear,180,2011-11-14 06:53:00
2:53 AM,52.0,33.1,49,29.95,10.0,South,10.4,-,N/A,,Clear,180,2011-11-14 07:53:00
3:53 AM,53.1,35.1,50,29.94,10.0,South,11.5,-,N/A,,Clear,190,2011-11-14 08:53:00
5:53 AM,53.1,37.9,57,29.95,10.0,South,11.5,-,N/A,,Clear,190,2011-11-14 10:53:00
6:53 AM,53.1,39.0,59,29.95,10.0,South,12.7,-,N/A,,Clear,190,2011-11-14 11:53:00
8:53 AM,55.9,43.0,62,29.95,10.0,South,11.5,-,N/A,,Clear,180,2011-11-14 13:53:00
9:53 AM,57.9,44.1,60,29.94,10.0,South,12.7,-,N/A,,Clear,180,2011-11-14 14:53:00
10:53 AM,59.0,46.0,62,29.95,10.0,South,9.2,-,N/A,,Partly Cloudy,180,2011-11-14 15:53:00
11:53 AM,61.0,46.9,60,29.90,10.0,South,11.5,-,N/A,,Clear,190,2011-11-14 16:53:00
12:53 PM,64.0,48.0,56,29.86,10.0,SSW,10.4,16.1,N/A,,Clear,200,2011-11-14 17:53:00
1:53 PM,64.0,48.9,58,29.84,10.0,South,9.2,-,N/A,,Clear,170,2011-11-14 18:53:00
2:53 PM,64.0,48.9,58,29.83,10.0,South,10.4,-,N/A,,Clear,170,2011-11-14 19:53:00
3:53 PM,66.0,51.1,59,29.81,10.0,SSE,9.2,-,N/A,,Clear,160,2011-11-14 20:53:00
4:53 PM,66.0,51.1,59,29.78,10.0,SSE,11.5,-,N/A,,Clear,160,2011-11-14 21:53:00
5:53 PM,64.9,50.0,58,29.78,10.0,South,8.1,-,N/A,,Clear,170,2011-11-14 22:53:00
6:53 PM,64.9,50.0,58,29.78,10.0,South,10.4,-,N/A,,Clear,180,2011-11-14 23:53:00
8:53 PM,64.9,48.9,56,29.77,10.0,South,13.8,-,N/A,,Clear,170,2011-11-15 01:53:00
9:53 PM,64.9,48.9,56,29.78,10.0,South,11.5,20.7,N/A,,Clear,180,2011-11-15 02:53:00
10:53 PM,64.0,48.9,58,29.77,10.0,South,13.8,-,N/A,,Clear,180,2011-11-15 03:53:00
11:53 PM,63.0,48.9,60,29.79,10.0,South,12.7,-,N/A,,Clear,180,2011-11-15 04:53:00